createdAt,value
2022-12-27T00:00:36.457Z,2.33
2022-12-27T00:03:03.519Z,2.53
2022-12-27T00:05:30.339Z,2.90
2022-12-27T00:07:57.279Z,2.85
2022-12-27T00:10:24.419Z,2.72
2022-12-27T00:12:51.292Z,3.67
2022-12-27T00:15:18.153Z,2.05
2022-12-27T00:17:45.035Z,2.75
2022-12-27T00:20:12.201Z,2.88
2022-12-27T00:22:40.592Z,2.38
2022-12-27T00:25:10.403Z,2.33
2022-12-27T00:27:37.622Z,2.45
2022-12-27T00:30:05.384Z,2.55
2022-12-27T00:32:32.263Z,2.63
2022-12-27T00:34:59.116Z,2.10
2022-12-27T00:37:25.970Z,2.70
2022-12-27T00:39:52.757Z,2.70
2022-12-27T00:42:19.891Z,2.42
2022-12-27T00:44:46.871Z,2.47
2022-12-27T00:47:13.657Z,2.20
2022-12-27T00:49:40.480Z,2.50
2022-12-27T00:52:07.268Z,2.85
2022-12-27T00:54:34.050Z,2.40
2022-12-27T00:57:00.873Z,3.00
2022-12-27T00:59:27.871Z,3.33
2022-12-27T01:01:54.928Z,4.22
2022-12-27T01:04:21.777Z,2.25
2022-12-27T01:06:48.608Z,3.03
2022-12-27T01:09:15.510Z,2.33
2022-12-27T01:11:42.292Z,2.15
2022-12-27T01:14:10.724Z,2.78
2022-12-27T01:16:38.507Z,2.80
2022-12-27T01:19:05.353Z,2.78
2022-12-27T01:21:32.184Z,3.00
2022-12-27T01:23:59.495Z,3.05
2022-12-27T01:26:26.668Z,3.17
2022-12-27T01:28:54.429Z,2.90
2022-12-27T01:31:28.397Z,3.25
2022-12-27T01:33:57.634Z,2.95
2022-12-27T01:36:26.504Z,4.10
2022-12-27T01:38:53.839Z,2.88
2022-12-27T01:41:41.212Z,3.08
2022-12-27T01:44:49.634Z,2.88
2022-12-27T01:47:39.644Z,2.67
2022-12-27T01:50:06.876Z,3.10
2022-12-27T01:53:04.687Z,2.85
2022-12-27T01:55:54.571Z,3.72
2022-12-27T01:58:35.647Z,3.40
2022-12-27T02:01:04.777Z,3.85
2022-12-27T02:03:39.265Z,3.35
2022-12-27T02:06:08.488Z,4.03
2022-12-27T02:08:56.996Z,3.97
2022-12-27T02:11:46.799Z,5.47
2022-12-27T02:14:15.335Z,3.42
2022-12-27T02:16:42.172Z,3.90
2022-12-27T02:19:33.157Z,4.15
2022-12-27T02:22:57.253Z,3.70
2022-12-27T02:25:45.315Z,4.03
2022-12-27T02:28:40.405Z,4.18
2022-12-27T02:31:39.376Z,4.15
2022-12-27T02:34:18.525Z,4.05
2022-12-27T02:36:46.520Z,3.97
2022-12-27T02:39:16.676Z,5.35
2022-12-27T02:42:03.519Z,4.68
2022-12-27T02:44:48.819Z,4.82
2022-12-27T02:47:41.151Z,5.85
2022-12-27T02:50:29.608Z,4.68
2022-12-27T02:53:26.848Z,4.18
2022-12-27T02:56:36.476Z,4.20
2022-12-27T02:59:21.849Z,5.35
2022-12-27T03:02:34.467Z,4.22
2022-12-27T03:05:07.650Z,4.63
2022-12-27T03:07:44.114Z,4.57
2022-12-27T03:11:00.206Z,3.97
2022-12-27T03:13:52.472Z,3.92
2022-12-27T03:16:55.948Z,3.33
2022-12-27T03:20:10.287Z,4.38
2022-12-27T03:22:57.640Z,4.82
2022-12-27T03:25:31.461Z,3.97
2022-12-27T03:28:25.144Z,4.15
2022-12-27T03:31:19.057Z,4.45
2022-12-27T03:33:49.208Z,3.50
2022-12-27T03:36:39.674Z,3.50
2022-12-27T03:39:19.446Z,3.60
2022-12-27T03:42:12.710Z,4.10
2022-12-27T03:44:40.204Z,4.20
2022-12-27T03:47:26.141Z,5.50
2022-12-27T03:50:03.311Z,4.32
2022-12-27T03:52:56.583Z,4.72
2022-12-27T03:55:28.436Z,4.40
2022-12-27T03:57:58.547Z,3.33
2022-12-27T04:00:25.382Z,3.97
2022-12-27T04:02:52.370Z,3.30
2022-12-27T04:05:19.313Z,3.05
2022-12-27T04:08:04.631Z,3.75
2022-12-27T04:10:49.874Z,3.22
2022-12-27T04:13:35.338Z,3.80
2022-12-27T04:16:20.823Z,3.22
2022-12-27T04:19:06.306Z,3.10
2022-12-27T04:21:51.866Z,3.63
2022-12-27T04:24:37.020Z,3.30
2022-12-27T04:27:22.681Z,3.20
2022-12-27T04:30:08.008Z,5.00
2022-12-27T04:32:53.347Z,3.63
2022-12-27T04:35:20.163Z,3.03
2022-12-27T04:37:47.089Z,2.83
2022-12-27T04:40:32.222Z,3.08
2022-12-27T04:43:17.568Z,3.13
2022-12-27T04:46:02.815Z,2.67
2022-12-27T04:48:49.240Z,2.78
2022-12-27T04:51:34.474Z,2.65
2022-12-27T04:54:19.696Z,2.63
2022-12-27T04:56:46.508Z,2.80
2022-12-27T04:59:31.802Z,3.10
2022-12-27T05:02:04.489Z,3.20
2022-12-27T05:04:34.756Z,3.95
2022-12-27T05:07:22.202Z,2.92
2022-12-27T05:10:07.953Z,2.80
2022-12-27T05:12:53.213Z,3.67
2022-12-27T05:15:20.021Z,3.75
2022-12-27T05:17:46.883Z,4.00
2022-12-27T05:20:13.797Z,4.88
2022-12-27T05:22:59.060Z,3.88
2022-12-27T05:25:35.184Z,5.82
2022-12-27T05:28:03.289Z,4.38
2022-12-27T05:30:36.624Z,4.28
2022-12-27T05:35:30.846Z,4.35
2022-12-27T05:37:57.773Z,4.45
2022-12-27T05:40:25.388Z,5.57
2022-12-27T05:42:52.955Z,5.65
2022-12-27T05:45:20.436Z,5.28
2022-12-27T05:47:47.298Z,4.35
2022-12-27T05:50:14.120Z,4.68
2022-12-27T05:52:41.522Z,4.78
2022-12-27T05:55:09.008Z,4.05
2022-12-27T05:57:36.338Z,4.10
2022-12-27T06:00:05.307Z,3.65
2022-12-27T06:02:32.421Z,3.85
2022-12-27T06:04:59.409Z,4.03
2022-12-27T06:07:26.196Z,4.60
2022-12-27T06:09:52.996Z,4.15
2022-12-27T06:12:19.857Z,4.45
2022-12-27T06:14:46.686Z,3.92
2022-12-27T06:17:13.520Z,4.20
2022-12-27T06:19:40.479Z,4.35
2022-12-27T06:22:07.260Z,5.43
2022-12-27T06:24:34.155Z,3.78
2022-12-27T06:27:00.961Z,4.35
2022-12-27T06:29:27.780Z,3.25
2022-12-27T06:31:54.646Z,3.40
2022-12-27T06:34:21.579Z,3.85
2022-12-27T06:36:50.941Z,3.55
2022-12-27T06:39:18.834Z,3.42
2022-12-27T06:41:46.237Z,4.03
2022-12-27T06:44:13.082Z,4.63
2022-12-27T06:46:39.917Z,4.03
2022-12-27T06:49:06.765Z,3.58
2022-12-27T06:51:33.890Z,3.45
2022-12-27T06:54:00.740Z,4.43
2022-12-27T06:56:27.668Z,3.67
2022-12-27T06:58:54.671Z,2.95
2022-12-27T07:01:26.603Z,3.55
2022-12-27T07:03:59.191Z,3.90
2022-12-27T07:06:28.997Z,3.75
2022-12-27T07:08:56.805Z,4.47
2022-12-27T07:11:24.805Z,4.30
2022-12-27T07:13:54.333Z,5.05
2022-12-27T07:16:24.210Z,4.47
2022-12-27T07:18:51.137Z,4.57
2022-12-27T07:21:20.705Z,4.55
2022-12-27T07:23:48.175Z,5.43
2022-12-27T07:26:17.831Z,3.80
2022-12-27T07:28:44.750Z,3.42
2022-12-27T07:31:15.266Z,3.83
2022-12-27T07:33:42.884Z,5.40
2022-12-27T07:36:14.283Z,4.53
2022-12-27T07:38:41.397Z,4.82
2022-12-27T07:41:11.510Z,4.78
2022-12-27T07:43:38.862Z,4.07
2022-12-27T07:46:09.108Z,5.30
2022-12-27T07:48:36.871Z,5.70
2022-12-27T07:51:04.360Z,5.43
2022-12-27T07:53:32.111Z,4.50
2022-12-27T07:55:59.376Z,4.97
2022-12-27T07:58:26.405Z,5.05
2022-12-27T08:00:53.347Z,5.18
2022-12-27T08:03:20.556Z,4.50
2022-12-27T08:05:49.556Z,4.70
2022-12-27T08:08:18.155Z,4.07
2022-12-27T08:10:45.024Z,4.53
2022-12-27T08:13:11.934Z,5.00
2022-12-27T08:15:42.563Z,5.05
2022-12-27T08:18:10.061Z,4.18
2022-12-27T08:20:37.289Z,4.10
2022-12-27T08:23:04.095Z,3.90
2022-12-27T08:25:30.936Z,4.28
2022-12-27T08:28:09.042Z,3.45
2022-12-27T08:30:35.944Z,4.75
2022-12-27T08:33:04.300Z,3.88
2022-12-27T08:35:52.223Z,4.22
2022-12-27T08:38:18.538Z,4.28
2022-12-27T08:40:46.311Z,4.63
2022-12-27T08:43:14.324Z,3.97
2022-12-27T08:45:41.770Z,5.63
2022-12-27T08:48:09.173Z,4.32
2022-12-27T08:50:36.018Z,4.47
2022-12-27T08:53:04.209Z,4.40
2022-12-27T08:55:31.629Z,4.88
2022-12-27T08:58:00.818Z,4.80
2022-12-27T09:00:28.888Z,5.03
2022-12-27T09:02:56.373Z,4.75
2022-12-27T09:05:24.353Z,4.35
2022-12-27T09:07:51.432Z,4.72
2022-12-27T09:10:19.416Z,5.68
2022-12-27T09:12:46.365Z,4.85
2022-12-27T09:15:16.133Z,4.47
2022-12-27T09:17:47.196Z,5.13
2022-12-27T09:20:14.164Z,6.13
2022-12-27T09:22:41.115Z,5.03
2022-12-27T09:25:08.605Z,5.28
2022-12-27T09:27:37.473Z,5.53
2022-12-27T09:30:15.621Z,6.95
2022-12-27T09:32:45.860Z,4.88
2022-12-27T09:35:14.244Z,4.97
2022-12-27T09:37:41.086Z,5.97
2022-12-27T09:40:11.107Z,5.30
2022-12-27T09:43:02.661Z,5.50
2022-12-27T09:45:50.461Z,5.28
2022-12-27T09:48:33.238Z,4.72
2022-12-27T09:51:26.936Z,6.22
2022-12-27T09:54:07.153Z,5.55
2022-12-27T09:56:54.482Z,5.90
2022-12-27T09:59:48.290Z,5.63
2022-12-27T10:02:25.350Z,5.22
2022-12-27T10:05:19.634Z,5.90
2022-12-27T10:08:06.658Z,5.03
2022-12-27T10:10:44.508Z,5.47
2022-12-27T10:13:32.387Z,5.95
2022-12-27T10:16:37.582Z,5.97
2022-12-27T10:19:26.668Z,6.28
2022-12-27T10:22:29.217Z,5.53
2022-12-27T10:24:59.326Z,4.50
2022-12-27T10:27:29.029Z,5.65
2022-12-27T10:29:59.016Z,5.43
2022-12-27T10:32:26.923Z,4.95
2022-12-27T10:35:00.250Z,4.38
2022-12-27T10:39:58.121Z,4.47
2022-12-27T10:42:37.399Z,4.93
2022-12-27T10:45:39.157Z,5.38
2022-12-27T10:48:28.794Z,5.20
2022-12-27T10:51:05.750Z,4.53
2022-12-27T10:53:39.976Z,4.90
2022-12-27T10:56:25.660Z,5.63
2022-12-27T10:58:58.714Z,4.95
2022-12-27T11:01:32.607Z,4.28
2022-12-27T11:04:23.583Z,4.55
2022-12-27T11:07:10.585Z,3.97
2022-12-27T11:09:37.385Z,3.78
2022-12-27T11:12:24.770Z,4.78
2022-12-27T11:15:15.677Z,4.63
2022-12-27T11:17:44.277Z,3.67
2022-12-27T11:20:22.081Z,3.75
2022-12-27T11:22:57.304Z,3.95
2022-12-27T11:25:26.499Z,4.03
2022-12-27T11:28:03.283Z,3.90
2022-12-27T11:30:33.695Z,3.45
2022-12-27T11:33:27.240Z,4.43
2022-12-27T11:35:57.507Z,4.40
2022-12-27T11:38:33.388Z,4.53
2022-12-27T11:41:26.108Z,3.47
2022-12-27T11:44:03.453Z,3.25
2022-12-27T11:46:59.401Z,3.28
2022-12-27T11:49:35.952Z,3.67
2022-12-27T11:52:21.823Z,3.35
2022-12-27T11:55:27.415Z,3.00
2022-12-27T11:58:14.266Z,3.17
2022-12-27T12:01:10.957Z,3.75
2022-12-27T12:03:40.784Z,3.28
2022-12-27T12:06:17.715Z,4.43
2022-12-27T12:09:10.723Z,3.85
2022-12-27T12:11:55.153Z,3.20
2022-12-27T12:15:01.047Z,2.95
2022-12-27T12:18:12.557Z,4.15
2022-12-27T12:20:50.344Z,3.45
2022-12-27T12:23:26.769Z,4.10
2022-12-27T12:26:26.327Z,3.88
2022-12-27T12:29:18.509Z,4.53
2022-12-27T12:32:18.373Z,3.97
2022-12-27T12:35:06.891Z,4.35
2022-12-27T12:38:23.860Z,4.88
2022-12-27T12:40:59.520Z,4.93
2022-12-27T12:43:32.397Z,4.57
2022-12-27T12:46:08.380Z,3.95
2022-12-27T12:49:03.879Z,4.90
2022-12-27T12:51:39.074Z,4.32
2022-12-27T12:54:11.943Z,4.32
2022-12-27T12:57:15.325Z,5.18
2022-12-27T13:00:09.246Z,4.55
2022-12-27T13:03:13.641Z,5.78
2022-12-27T13:06:01.316Z,5.93
2022-12-27T13:08:51.111Z,6.72
2022-12-27T13:11:24.358Z,5.88
2022-12-27T13:16:45.953Z,6.88
2022-12-27T13:19:54.076Z,6.72
2022-12-27T13:22:39.709Z,6.60
2022-12-27T13:25:24.197Z,7.28
2022-12-27T13:28:22.233Z,7.53
2022-12-27T13:31:28.245Z,7.15
2022-12-27T13:34:01.565Z,7.85
2022-12-27T13:39:32.079Z,8.67
2022-12-27T13:42:08.169Z,8.68
2022-12-27T13:45:07.172Z,8.75
2022-12-27T13:47:55.975Z,8.98
2022-12-27T13:50:53.952Z,8.57
2022-12-27T13:53:45.901Z,10.02
2022-12-27T13:56:51.892Z,9.57
2022-12-27T13:59:25.448Z,8.65
2022-12-27T14:02:19.625Z,11.68
2022-12-27T14:05:07.195Z,11.85
2022-12-27T14:07:58.124Z,10.55
2022-12-27T14:10:45.336Z,11.15
2022-12-27T14:13:13.594Z,10.98
2022-12-27T14:15:52.501Z,10.73
2022-12-27T14:18:24.793Z,12.05
2022-12-27T14:21:03.621Z,12.35
2022-12-27T14:23:49.181Z,10.98
2022-12-27T14:26:41.021Z,13.20
2022-12-27T14:29:26.431Z,12.95
2022-12-27T14:32:22.781Z,12.57
2022-12-27T14:35:07.991Z,13.27
2022-12-27T14:37:43.747Z,11.50
2022-12-27T14:40:27.621Z,13.23
2022-12-27T14:43:28.840Z,11.43
2022-12-27T14:46:01.582Z,12.73
2022-12-27T14:48:43.645Z,12.80
2022-12-27T14:52:10.489Z,13.95
2022-12-27T14:55:10.520Z,12.75
2022-12-27T14:57:45.993Z,12.85
2022-12-27T15:00:24.209Z,12.68
2022-12-27T15:03:12.770Z,12.05
2022-12-27T15:06:00.812Z,12.93
2022-12-27T15:09:03.961Z,14.02
2022-12-27T15:12:07.224Z,12.85
2022-12-27T15:14:34.033Z,12.25
2022-12-27T15:17:12.731Z,13.07
2022-12-27T15:19:42.553Z,13.10
2022-12-27T15:22:30.660Z,13.00
2022-12-27T15:25:22.531Z,13.27
2022-12-27T15:28:36.629Z,12.70
2022-12-27T15:31:21.321Z,14.35
2022-12-27T15:34:25.254Z,12.23
2022-12-27T15:36:52.476Z,12.82
2022-12-27T15:39:34.822Z,13.40
2022-12-27T15:42:29.263Z,13.65
2022-12-27T15:45:26.305Z,13.48
2022-12-27T15:48:08.636Z,12.00
2022-12-27T15:50:48.541Z,13.25
2022-12-27T15:53:39.892Z,12.55
2022-12-27T15:56:41.350Z,13.43
2022-12-27T15:59:39.861Z,12.68
2022-12-27T16:02:33.062Z,10.82
2022-12-27T16:05:09.053Z,11.90
2022-12-27T16:07:36.276Z,12.00
2022-12-27T16:10:35.193Z,12.75
2022-12-27T16:13:19.822Z,13.88
2022-12-27T16:16:08.593Z,11.35
2022-12-27T16:18:58.983Z,11.60
2022-12-27T16:21:35.360Z,9.63
2022-12-27T16:24:10.168Z,10.18
2022-12-27T16:26:38.239Z,9.75
2022-12-27T16:29:55.618Z,9.20
2022-12-27T16:32:25.847Z,9.02
2022-12-27T16:34:55.651Z,9.23
2022-12-27T16:37:33.739Z,9.20
2022-12-27T16:40:24.497Z,7.65
2022-12-27T16:42:54.345Z,8.18
2022-12-27T16:45:39.438Z,7.57
2022-12-27T16:48:12.294Z,8.38
2022-12-27T16:50:56.891Z,7.10
2022-12-27T16:53:23.704Z,8.38
2022-12-27T16:56:16.193Z,7.10
2022-12-27T16:58:43.559Z,6.05
2022-12-27T17:01:25.713Z,7.38
2022-12-27T17:03:54.553Z,7.22
2022-12-27T17:06:35.721Z,6.18
2022-12-27T17:09:08.719Z,6.25
2022-12-27T17:11:55.799Z,6.00
2022-12-27T17:14:27.959Z,6.45
2022-12-27T17:17:14.134Z,7.43
2022-12-27T17:20:03.501Z,7.38
2022-12-27T17:22:35.331Z,6.68
2022-12-27T17:25:03.105Z,6.10
2022-12-27T17:27:51.892Z,6.65
2022-12-27T17:30:25.366Z,6.28
2022-12-27T17:33:27.553Z,6.35
2022-12-27T17:36:18.862Z,6.15
2022-12-27T17:39:13.718Z,7.07
2022-12-27T17:42:35.228Z,6.80
2022-12-27T17:45:24.213Z,6.80
2022-12-27T17:48:02.715Z,6.18
2022-12-27T17:50:30.083Z,6.30
2022-12-27T17:53:29.350Z,6.18
2022-12-27T17:56:21.865Z,7.45
2022-12-27T17:58:48.730Z,7.38
2022-12-27T18:01:21.691Z,8.27
2022-12-27T18:03:48.657Z,7.50
2022-12-27T18:06:19.753Z,8.15
2022-12-27T18:08:49.493Z,6.78
2022-12-27T18:11:16.803Z,6.70
2022-12-27T18:13:56.757Z,7.57
2022-12-27T18:16:30.570Z,7.75
2022-12-27T18:19:00.005Z,6.72
2022-12-27T18:21:29.605Z,6.43
2022-12-27T18:23:57.229Z,6.72
2022-12-27T18:26:41.955Z,7.80
2022-12-27T18:29:12.497Z,6.85
2022-12-27T18:31:50.692Z,6.80
2022-12-27T18:34:28.577Z,6.85
2022-12-27T18:37:01.972Z,6.80
2022-12-27T18:40:02.375Z,7.40
2022-12-27T18:42:43.203Z,6.05
2022-12-27T18:45:23.499Z,7.07
2022-12-27T18:47:53.585Z,5.72
2022-12-27T18:50:48.616Z,5.78
2022-12-27T18:53:25.434Z,5.75
2022-12-27T18:56:15.930Z,5.78
2022-12-27T18:59:00.528Z,5.72
2022-12-27T19:01:41.254Z,4.78
2022-12-27T19:04:14.465Z,5.40
2022-12-27T19:06:50.550Z,5.18
2022-12-27T19:09:21.126Z,4.95
2022-12-27T19:12:34.181Z,5.65
2022-12-27T19:15:02.557Z,5.15
2022-12-27T19:17:31.428Z,4.85
2022-12-27T19:20:05.507Z,6.35
2022-12-27T19:22:42.568Z,4.65
2022-12-27T19:25:25.003Z,5.00
2022-12-27T19:28:04.287Z,4.93
2022-12-27T19:33:50.177Z,5.32
2022-12-27T19:36:47.044Z,4.97
2022-12-27T19:39:28.919Z,4.15
2022-12-27T19:42:01.052Z,4.80
2022-12-27T19:44:39.447Z,4.40
2022-12-27T19:47:07.014Z,4.22
2022-12-27T19:49:42.811Z,5.38
2022-12-27T19:52:30.106Z,4.80
2022-12-27T19:55:09.353Z,4.45
2022-12-27T19:57:36.197Z,4.20
2022-12-27T20:00:12.078Z,3.80
2022-12-27T20:02:39.726Z,3.58
2022-12-27T20:05:07.209Z,3.83
2022-12-27T20:07:34.122Z,4.45
2022-12-27T20:10:01.113Z,3.67
2022-12-27T20:12:28.078Z,4.95
2022-12-27T20:14:54.952Z,4.72
2022-12-27T20:17:21.790Z,4.07
2022-12-27T20:19:48.737Z,3.10
2022-12-27T20:22:54.245Z,3.70
2022-12-27T20:25:21.157Z,4.10
2022-12-27T20:27:54.202Z,4.07
2022-12-27T20:30:21.113Z,2.58
2022-12-27T20:32:48.084Z,3.38
2022-12-27T20:35:14.988Z,3.30
2022-12-27T20:37:41.842Z,3.97
2022-12-27T20:40:11.225Z,3.67
2022-12-27T20:42:38.043Z,3.63
2022-12-27T20:45:28.316Z,2.90
2022-12-27T20:47:56.379Z,3.92
2022-12-27T20:50:24.973Z,4.25
2022-12-27T20:52:55.178Z,2.92
2022-12-27T20:55:28.343Z,3.47
2022-12-27T20:57:55.601Z,4.07
2022-12-27T21:00:22.745Z,3.70
2022-12-27T21:02:49.755Z,3.55
2022-12-27T21:05:17.039Z,4.25
2022-12-27T21:07:43.943Z,3.08
2022-12-27T21:10:11.093Z,3.08
2022-12-27T21:12:38.556Z,3.97
2022-12-27T21:15:08.258Z,4.53
2022-12-27T21:17:35.424Z,3.53
2022-12-27T21:20:02.640Z,4.10
2022-12-27T21:22:29.466Z,3.50
2022-12-27T21:24:56.303Z,3.17
2022-12-27T21:27:23.091Z,3.33
2022-12-27T21:29:49.878Z,3.28
2022-12-27T21:32:17.892Z,3.17
2022-12-27T21:34:44.737Z,3.38
2022-12-27T21:37:13.427Z,3.22
2022-12-27T21:39:40.734Z,3.22
2022-12-27T21:42:07.601Z,3.20
2022-12-27T21:44:38.853Z,2.97
2022-12-27T21:47:06.475Z,3.03
2022-12-27T21:49:34.679Z,3.13
2022-12-27T21:52:01.537Z,4.35
2022-12-27T21:54:28.704Z,3.53
2022-12-27T21:56:55.491Z,3.60
2022-12-27T21:59:22.294Z,3.53
2022-12-27T22:01:50.260Z,3.60
2022-12-27T22:04:20.205Z,4.10
2022-12-27T22:06:47.910Z,2.80
2022-12-27T22:09:15.520Z,3.30
2022-12-27T22:11:42.701Z,3.20
2022-12-27T22:14:09.577Z,3.38
2022-12-27T22:16:38.933Z,3.22
2022-12-27T22:19:08.238Z,3.03
2022-12-27T22:21:36.575Z,3.13
2022-12-27T22:24:04.076Z,2.97
2022-12-27T22:26:40.621Z,3.72
2022-12-27T22:29:07.943Z,3.95
2022-12-27T22:31:37.565Z,3.47
2022-12-27T22:34:05.474Z,3.08
2022-12-27T22:36:32.596Z,3.80
2022-12-27T22:39:00.030Z,4.10
2022-12-27T22:41:34.444Z,3.58
2022-12-27T22:44:07.467Z,4.32
2022-12-27T22:49:29.183Z,3.28
2022-12-27T22:51:58.756Z,4.20
2022-12-27T22:55:04.870Z,3.05
2022-12-27T22:57:12.345Z,3.30
2022-12-27T22:59:42.265Z,2.72
2022-12-27T23:02:09.185Z,3.15
2022-12-27T23:04:36.064Z,3.10
2022-12-27T23:07:06.047Z,3.42
2022-12-27T23:09:39.201Z,3.17
2022-12-27T23:12:09.529Z,2.95
2022-12-27T23:14:36.330Z,2.85
2022-12-27T23:17:03.165Z,3.63
2022-12-27T23:19:29.997Z,3.30
2022-12-27T23:21:56.945Z,2.83
2022-12-27T23:24:23.809Z,3.10
2022-12-27T23:26:50.644Z,2.78
2022-12-27T23:29:17.526Z,2.97
2022-12-27T23:31:54.362Z,2.80
2022-12-27T23:34:27.641Z,2.85
2022-12-27T23:39:22.818Z,2.78
2022-12-27T23:41:49.648Z,2.97
2022-12-27T23:44:19.816Z,2.63
2022-12-27T23:47:00.481Z,3.58
2022-12-27T23:49:27.366Z,3.72
2022-12-27T23:51:54.320Z,3.58
2022-12-27T23:54:21.102Z,3.70
2022-12-27T23:56:47.897Z,3.97
2022-12-27T23:59:16.777Z,4.13
